sensor_id;sensor_type;location;lat;lon;timestamp;temperature;humidity
8420;DHT22;4247;48.550;8.822;2023-07-31T00:02:23;15.10;99.90
8420;DHT22;4247;48.550;8.822;2023-07-31T00:04:50;15.10;99.90
8420;DHT22;4247;48.550;8.822;2023-07-31T00:07:18;15.10;99.90
8420;DHT22;4247;48.550;8.822;2023-07-31T00:09:45;15.10;99.90
8420;DHT22;4247;48.550;8.822;2023-07-31T00:12:11;15.00;99.90
8420;DHT22;4247;48.550;8.822;2023-07-31T00:14:38;15.00;99.90
8420;DHT22;4247;48.550;8.822;2023-07-31T00:17:05;15.00;99.90
8420;DHT22;4247;48.550;8.822;2023-07-31T00:19:32;14.90;99.90
8420;DHT22;4247;48.550;8.822;2023-07-31T00:21:58;14.90;99.90
8420;DHT22;4247;48.550;8.822;2023-07-31T00:24:26;14.90;99.90
8420;DHT22;4247;48.550;8.822;2023-07-31T00:26:53;14.90;99.90
8420;DHT22;4247;48.550;8.822;2023-07-31T00:29:20;14.80;99.90
8420;DHT22;4247;48.550;8.822;2023-07-31T00:31:46;14.70;99.90
8420;DHT22;4247;48.550;8.822;2023-07-31T00:34:13;14.70;99.90
8420;DHT22;4247;48.550;8.822;2023-07-31T00:36:40;14.70;99.90
8420;DHT22;4247;48.550;8.822;2023-07-31T00:39:06;14.70;99.90
8420;DHT22;4247;48.550;8.822;2023-07-31T00:41:34;14.70;99.90
8420;DHT22;4247;48.550;8.822;2023-07-31T00:44:01;14.70;99.90
8420;DHT22;4247;48.550;8.822;2023-07-31T00:46:28;14.70;99.90
8420;DHT22;4247;48.550;8.822;2023-07-31T00:48:55;14.60;99.90
8420;DHT22;4247;48.550;8.822;2023-07-31T00:51:21;14.60;99.90
8420;DHT22;4247;48.550;8.822;2023-07-31T00:53:48;14.60;99.90
8420;DHT22;4247;48.550;8.822;2023-07-31T00:56:15;14.60;99.90
8420;DHT22;4247;48.550;8.822;2023-07-31T00:58:44;14.40;99.90
8420;DHT22;4247;48.550;8.822;2023-07-31T01:01:11;14.40;99.90
8420;DHT22;4247;48.550;8.822;2023-07-31T01:03:38;14.40;99.90
8420;DHT22;4247;48.550;8.822;2023-07-31T01:06:13;14.40;99.90
8420;DHT22;4247;48.550;8.822;2023-07-31T01:08:47;14.40;99.90
8420;DHT22;4247;48.550;8.822;2023-07-31T01:11:17;14.40;99.90
8420;DHT22;4247;48.550;8.822;2023-07-31T01:13:47;14.30;99.90
8420;DHT22;4247;48.550;8.822;2023-07-31T01:16:14;14.30;99.90
8420;DHT22;4247;48.550;8.822;2023-07-31T01:18:41;14.40;99.90
8420;DHT22;4247;48.550;8.822;2023-07-31T01:21:28;14.30;99.90
8420;DHT22;4247;48.550;8.822;2023-07-31T01:24:20;14.30;99.90
8420;DHT22;4247;48.550;8.822;2023-07-31T01:26:53;14.30;99.90
8420;DHT22;4247;48.550;8.822;2023-07-31T01:29:27;14.30;99.90
8420;DHT22;4247;48.550;8.822;2023-07-31T01:31:56;14.30;99.90
8420;DHT22;4247;48.550;8.822;2023-07-31T01:34:24;14.30;99.90
8420;DHT22;4247;48.550;8.822;2023-07-31T01:36:52;14.30;99.90
8420;DHT22;4247;48.550;8.822;2023-07-31T01:39:20;14.30;99.90
8420;DHT22;4247;48.550;8.822;2023-07-31T01:41:48;14.30;99.90
8420;DHT22;4247;48.550;8.822;2023-07-31T01:44:15;14.30;99.90
8420;DHT22;4247;48.550;8.822;2023-07-31T01:46:41;14.20;99.90
8420;DHT22;4247;48.550;8.822;2023-07-31T01:49:09;14.20;99.90
8420;DHT22;4247;48.550;8.822;2023-07-31T01:51:36;14.20;99.90
8420;DHT22;4247;48.550;8.822;2023-07-31T01:54:02;14.20;99.90
8420;DHT22;4247;48.550;8.822;2023-07-31T01:56:29;14.20;99.90
8420;DHT22;4247;48.550;8.822;2023-07-31T01:58:57;14.10;99.90
8420;DHT22;4247;48.550;8.822;2023-07-31T02:01:24;14.10;99.90
8420;DHT22;4247;48.550;8.822;2023-07-31T02:03:50;14.00;99.90
8420;DHT22;4247;48.550;8.822;2023-07-31T02:06:16;14.00;99.90
8420;DHT22;4247;48.550;8.822;2023-07-31T02:08:43;14.00;99.90
8420;DHT22;4247;48.550;8.822;2023-07-31T02:11:10;14.00;99.90
8420;DHT22;4247;48.550;8.822;2023-07-31T02:13:36;13.90;99.90
8420;DHT22;4247;48.550;8.822;2023-07-31T02:16:05;13.90;99.90
8420;DHT22;4247;48.550;8.822;2023-07-31T02:18:31;13.90;99.90
8420;DHT22;4247;48.550;8.822;2023-07-31T02:20:58;13.90;99.90
8420;DHT22;4247;48.550;8.822;2023-07-31T02:23:25;13.90;99.90
8420;DHT22;4247;48.550;8.822;2023-07-31T02:25:51;13.80;99.90
8420;DHT22;4247;48.550;8.822;2023-07-31T02:28:18;13.90;99.90
8420;DHT22;4247;48.550;8.822;2023-07-31T02:30:45;13.80;99.90
8420;DHT22;4247;48.550;8.822;2023-07-31T02:33:14;13.80;99.90
8420;DHT22;4247;48.550;8.822;2023-07-31T02:35:41;13.80;99.90
8420;DHT22;4247;48.550;8.822;2023-07-31T02:38:08;13.80;99.90
8420;DHT22;4247;48.550;8.822;2023-07-31T02:40:34;13.80;99.90
8420;DHT22;4247;48.550;8.822;2023-07-31T02:43:02;13.80;99.90
8420;DHT22;4247;48.550;8.822;2023-07-31T02:45:29;13.70;99.90
8420;DHT22;4247;48.550;8.822;2023-07-31T02:47:56;13.70;99.90
8420;DHT22;4247;48.550;8.822;2023-07-31T02:50:24;13.70;99.90
8420;DHT22;4247;48.550;8.822;2023-07-31T02:52:53;13.70;99.90
8420;DHT22;4247;48.550;8.822;2023-07-31T02:55:19;13.70;99.90
8420;DHT22;4247;48.550;8.822;2023-07-31T02:57:46;13.70;99.90
8420;DHT22;4247;48.550;8.822;2023-07-31T03:00:13;13.70;99.90
8420;DHT22;4247;48.550;8.822;2023-07-31T03:02:40;13.70;99.90
8420;DHT22;4247;48.550;8.822;2023-07-31T03:05:07;13.70;99.90
8420;DHT22;4247;48.550;8.822;2023-07-31T03:07:35;13.70;99.90
8420;DHT22;4247;48.550;8.822;2023-07-31T03:10:02;13.80;99.90
8420;DHT22;4247;48.550;8.822;2023-07-31T03:12:29;13.80;99.90
8420;DHT22;4247;48.550;8.822;2023-07-31T03:14:56;13.70;99.90
8420;DHT22;4247;48.550;8.822;2023-07-31T03:17:22;13.80;99.90
8420;DHT22;4247;48.550;8.822;2023-07-31T03:19:49;13.80;99.90
8420;DHT22;4247;48.550;8.822;2023-07-31T03:22:16;13.90;99.90
8420;DHT22;4247;48.550;8.822;2023-07-31T03:24:44;13.90;99.90
8420;DHT22;4247;48.550;8.822;2023-07-31T03:27:10;13.90;99.90
8420;DHT22;4247;48.550;8.822;2023-07-31T03:29:37;14.00;99.90
8420;DHT22;4247;48.550;8.822;2023-07-31T03:32:04;14.00;99.90
8420;DHT22;4247;48.550;8.822;2023-07-31T03:34:31;14.10;99.90
8420;DHT22;4247;48.550;8.822;2023-07-31T03:36:58;14.10;99.90
8420;DHT22;4247;48.550;8.822;2023-07-31T03:39:25;14.20;99.90
8420;DHT22;4247;48.550;8.822;2023-07-31T03:41:53;14.10;99.90
8420;DHT22;4247;48.550;8.822;2023-07-31T03:44:19;14.20;99.90
8420;DHT22;4247;48.550;8.822;2023-07-31T03:46:46;14.20;99.90
8420;DHT22;4247;48.550;8.822;2023-07-31T03:49:13;14.20;99.90
8420;DHT22;4247;48.550;8.822;2023-07-31T03:51:40;14.20;99.90
8420;DHT22;4247;48.550;8.822;2023-07-31T03:54:07;14.30;99.90
8420;DHT22;4247;48.550;8.822;2023-07-31T03:56:34;14.30;99.90
8420;DHT22;4247;48.550;8.822;2023-07-31T03:59:02;14.40;99.90
8420;DHT22;4247;48.550;8.822;2023-07-31T04:01:29;14.40;99.90
8420;DHT22;4247;48.550;8.822;2023-07-31T04:03:55;14.40;99.90
8420;DHT22;4247;48.550;8.822;2023-07-31T04:06:22;14.50;99.90
8420;DHT22;4247;48.550;8.822;2023-07-31T04:08:49;14.50;99.90
8420;DHT22;4247;48.550;8.822;2023-07-31T04:11:16;14.60;99.90
8420;DHT22;4247;48.550;8.822;2023-07-31T04:13:42;14.60;99.90
8420;DHT22;4247;48.550;8.822;2023-07-31T04:16:10;14.60;99.90
8420;DHT22;4247;48.550;8.822;2023-07-31T04:18:37;14.60;99.90
8420;DHT22;4247;48.550;8.822;2023-07-31T04:21:04;14.60;99.90
8420;DHT22;4247;48.550;8.822;2023-07-31T04:23:31;14.60;99.90
8420;DHT22;4247;48.550;8.822;2023-07-31T04:25:57;14.60;99.90
8420;DHT22;4247;48.550;8.822;2023-07-31T04:28:24;14.60;99.90
8420;DHT22;4247;48.550;8.822;2023-07-31T04:30:51;14.70;99.90
8420;DHT22;4247;48.550;8.822;2023-07-31T04:33:20;14.70;99.90
8420;DHT22;4247;48.550;8.822;2023-07-31T04:35:50;14.70;99.90
8420;DHT22;4247;48.550;8.822;2023-07-31T04:38:18;14.80;99.90
8420;DHT22;4247;48.550;8.822;2023-07-31T04:40:45;14.80;99.90
8420;DHT22;4247;48.550;8.822;2023-07-31T04:43:11;14.90;99.90
8420;DHT22;4247;48.550;8.822;2023-07-31T04:45:38;14.90;99.90
8420;DHT22;4247;48.550;8.822;2023-07-31T04:48:05;15.00;99.90
8420;DHT22;4247;48.550;8.822;2023-07-31T04:50:33;15.00;99.90
8420;DHT22;4247;48.550;8.822;2023-07-31T04:53:00;15.00;99.90
8420;DHT22;4247;48.550;8.822;2023-07-31T04:55:26;15.00;99.90
8420;DHT22;4247;48.550;8.822;2023-07-31T04:57:53;15.10;99.90
8420;DHT22;4247;48.550;8.822;2023-07-31T05:00:20;15.10;99.90
8420;DHT22;4247;48.550;8.822;2023-07-31T05:02:47;15.20;99.90
8420;DHT22;4247;48.550;8.822;2023-07-31T05:05:13;15.30;99.90
8420;DHT22;4247;48.550;8.822;2023-07-31T05:07:41;15.40;99.90
8420;DHT22;4247;48.550;8.822;2023-07-31T05:10:09;15.50;99.90
8420;DHT22;4247;48.550;8.822;2023-07-31T05:12:35;15.60;99.90
8420;DHT22;4247;48.550;8.822;2023-07-31T05:15:02;15.70;99.90
8420;DHT22;4247;48.550;8.822;2023-07-31T05:17:29;15.80;99.90
8420;DHT22;4247;48.550;8.822;2023-07-31T05:19:56;15.90;99.90
8420;DHT22;4247;48.550;8.822;2023-07-31T05:22:23;16.00;99.90
8420;DHT22;4247;48.550;8.822;2023-07-31T05:24:51;16.20;99.90
8420;DHT22;4247;48.550;8.822;2023-07-31T05:27:19;16.30;99.90
8420;DHT22;4247;48.550;8.822;2023-07-31T05:29:46;16.50;99.90
8420;DHT22;4247;48.550;8.822;2023-07-31T05:32:13;16.60;99.90
8420;DHT22;4247;48.550;8.822;2023-07-31T05:34:39;16.70;99.90
8420;DHT22;4247;48.550;8.822;2023-07-31T05:37:06;16.80;99.90
8420;DHT22;4247;48.550;8.822;2023-07-31T05:39:33;16.90;99.90
8420;DHT22;4247;48.550;8.822;2023-07-31T05:42:01;16.90;99.90
8420;DHT22;4247;48.550;8.822;2023-07-31T05:44:27;17.00;99.90
8420;DHT22;4247;48.550;8.822;2023-07-31T05:46:54;17.00;99.90
8420;DHT22;4247;48.550;8.822;2023-07-31T05:49:21;17.00;99.90
8420;DHT22;4247;48.550;8.822;2023-07-31T05:51:47;17.00;99.90
8420;DHT22;4247;48.550;8.822;2023-07-31T05:54:14;17.00;99.90
8420;DHT22;4247;48.550;8.822;2023-07-31T05:56:41;16.90;99.90
8420;DHT22;4247;48.550;8.822;2023-07-31T05:59:11;16.90;99.90
8420;DHT22;4247;48.550;8.822;2023-07-31T06:01:38;16.90;99.90
8420;DHT22;4247;48.550;8.822;2023-07-31T06:04:05;17.00;99.90
8420;DHT22;4247;48.550;8.822;2023-07-31T06:06:32;17.00;99.90
8420;DHT22;4247;48.550;8.822;2023-07-31T06:08:59;17.00;99.90
8420;DHT22;4247;48.550;8.822;2023-07-31T06:11:25;17.10;99.90
8420;DHT22;4247;48.550;8.822;2023-07-31T06:13:52;17.10;99.90
8420;DHT22;4247;48.550;8.822;2023-07-31T06:16:20;17.20;99.90
8420;DHT22;4247;48.550;8.822;2023-07-31T06:18:47;17.30;99.90
8420;DHT22;4247;48.550;8.822;2023-07-31T06:21:13;17.40;99.90
8420;DHT22;4247;48.550;8.822;2023-07-31T06:23:40;17.60;99.90
8420;DHT22;4247;48.550;8.822;2023-07-31T06:26:07;17.80;99.90
8420;DHT22;4247;48.550;8.822;2023-07-31T06:28:35;17.90;99.90
8420;DHT22;4247;48.550;8.822;2023-07-31T06:31:01;18.20;99.90
8420;DHT22;4247;48.550;8.822;2023-07-31T06:33:29;18.30;99.90
8420;DHT22;4247;48.550;8.822;2023-07-31T06:35:56;18.50;99.90
8420;DHT22;4247;48.550;8.822;2023-07-31T06:38:25;18.60;99.90
8420;DHT22;4247;48.550;8.822;2023-07-31T06:40:52;18.70;99.90
8420;DHT22;4247;48.550;8.822;2023-07-31T06:43:19;18.70;99.90
8420;DHT22;4247;48.550;8.822;2023-07-31T06:45:46;18.60;99.90
8420;DHT22;4247;48.550;8.822;2023-07-31T06:48:15;18.70;99.90
8420;DHT22;4247;48.550;8.822;2023-07-31T06:50:43;18.70;99.90
8420;DHT22;4247;48.550;8.822;2023-07-31T06:53:10;18.70;99.90
8420;DHT22;4247;48.550;8.822;2023-07-31T06:55:37;18.70;99.90
8420;DHT22;4247;48.550;8.822;2023-07-31T06:58:03;18.70;99.90
8420;DHT22;4247;48.550;8.822;2023-07-31T07:00:30;18.70;99.90
8420;DHT22;4247;48.550;8.822;2023-07-31T07:02:57;18.70;99.90
8420;DHT22;4247;48.550;8.822;2023-07-31T07:05:24;18.60;99.90
8420;DHT22;4247;48.550;8.822;2023-07-31T07:07:52;18.60;99.90
8420;DHT22;4247;48.550;8.822;2023-07-31T07:10:19;18.40;99.90
8420;DHT22;4247;48.550;8.822;2023-07-31T07:12:46;18.50;99.90
8420;DHT22;4247;48.550;8.822;2023-07-31T07:15:13;18.60;99.90
8420;DHT22;4247;48.550;8.822;2023-07-31T07:17:40;18.70;99.90
8420;DHT22;4247;48.550;8.822;2023-07-31T07:20:08;18.80;99.90
8420;DHT22;4247;48.550;8.822;2023-07-31T07:22:34;18.90;99.90
8420;DHT22;4247;48.550;8.822;2023-07-31T07:25:03;18.90;99.90
8420;DHT22;4247;48.550;8.822;2023-07-31T07:27:30;18.80;99.90
8420;DHT22;4247;48.550;8.822;2023-07-31T07:29:57;18.90;99.90
8420;DHT22;4247;48.550;8.822;2023-07-31T07:32:23;19.00;99.90
8420;DHT22;4247;48.550;8.822;2023-07-31T07:34:50;19.00;99.90
8420;DHT22;4247;48.550;8.822;2023-07-31T07:37:17;19.10;99.90
8420;DHT22;4247;48.550;8.822;2023-07-31T07:39:43;19.30;99.90
8420;DHT22;4247;48.550;8.822;2023-07-31T07:42:12;19.50;99.90
8420;DHT22;4247;48.550;8.822;2023-07-31T07:44:38;19.60;99.90
8420;DHT22;4247;48.550;8.822;2023-07-31T07:47:05;19.80;99.90
8420;DHT22;4247;48.550;8.822;2023-07-31T07:49:33;20.00;99.90
8420;DHT22;4247;48.550;8.822;2023-07-31T07:52:00;20.20;99.90
8420;DHT22;4247;48.550;8.822;2023-07-31T07:54:27;20.30;99.90
8420;DHT22;4247;48.550;8.822;2023-07-31T07:56:54;20.50;99.90
8420;DHT22;4247;48.550;8.822;2023-07-31T07:59:22;20.80;99.90
8420;DHT22;4247;48.550;8.822;2023-07-31T08:01:49;21.10;99.90
8420;DHT22;4247;48.550;8.822;2023-07-31T08:04:15;21.40;99.90
8420;DHT22;4247;48.550;8.822;2023-07-31T08:06:42;21.60;99.90
8420;DHT22;4247;48.550;8.822;2023-07-31T08:09:09;21.70;98.60
8420;DHT22;4247;48.550;8.822;2023-07-31T08:11:36;21.90;98.70
8420;DHT22;4247;48.550;8.822;2023-07-31T08:14:02;22.00;97.40
8420;DHT22;4247;48.550;8.822;2023-07-31T08:16:30;22.30;98.00
8420;DHT22;4247;48.550;8.822;2023-07-31T08:18:57;22.60;98.00
8420;DHT22;4247;48.550;8.822;2023-07-31T08:21:24;22.70;97.20
8420;DHT22;4247;48.550;8.822;2023-07-31T08:23:51;22.90;96.70
8420;DHT22;4247;48.550;8.822;2023-07-31T08:26:18;22.90;95.60
8420;DHT22;4247;48.550;8.822;2023-07-31T08:28:45;22.80;96.00
8420;DHT22;4247;48.550;8.822;2023-07-31T08:31:12;22.80;97.10
8420;DHT22;4247;48.550;8.822;2023-07-31T08:33:40;22.80;96.90
8420;DHT22;4247;48.550;8.822;2023-07-31T08:36:06;22.70;96.30
8420;DHT22;4247;48.550;8.822;2023-07-31T08:38:33;22.60;96.30
8420;DHT22;4247;48.550;8.822;2023-07-31T08:41:00;22.60;96.20
8420;DHT22;4247;48.550;8.822;2023-07-31T08:43:27;22.50;97.30
8420;DHT22;4247;48.550;8.822;2023-07-31T08:45:54;22.40;96.60
8420;DHT22;4247;48.550;8.822;2023-07-31T08:48:22;22.30;96.10
8420;DHT22;4247;48.550;8.822;2023-07-31T08:50:51;22.20;96.50
8420;DHT22;4247;48.550;8.822;2023-07-31T08:53:18;22.10;96.40
8420;DHT22;4247;48.550;8.822;2023-07-31T08:55:46;22.00;96.20
8420;DHT22;4247;48.550;8.822;2023-07-31T08:58:14;22.00;96.10
8420;DHT22;4247;48.550;8.822;2023-07-31T09:00:43;22.00;97.00
8420;DHT22;4247;48.550;8.822;2023-07-31T09:03:14;22.00;96.00
8420;DHT22;4247;48.550;8.822;2023-07-31T09:05:43;22.00;96.60
8420;DHT22;4247;48.550;8.822;2023-07-31T09:08:12;22.00;97.00
8420;DHT22;4247;48.550;8.822;2023-07-31T09:10:43;22.00;97.00
8420;DHT22;4247;48.550;8.822;2023-07-31T09:13:11;22.00;96.40
8420;DHT22;4247;48.550;8.822;2023-07-31T09:15:39;22.10;96.70
8420;DHT22;4247;48.550;8.822;2023-07-31T09:18:07;22.10;96.90
8420;DHT22;4247;48.550;8.822;2023-07-31T09:20:34;22.20;97.00
8420;DHT22;4247;48.550;8.822;2023-07-31T09:23:08;22.10;96.40
8420;DHT22;4247;48.550;8.822;2023-07-31T09:25:37;22.10;97.00
8420;DHT22;4247;48.550;8.822;2023-07-31T09:28:05;22.20;96.70
8420;DHT22;4247;48.550;8.822;2023-07-31T09:30:45;22.20;95.70
8420;DHT22;4247;48.550;8.822;2023-07-31T09:33:12;22.10;95.60
8420;DHT22;4247;48.550;8.822;2023-07-31T09:35:39;22.00;95.20
8420;DHT22;4247;48.550;8.822;2023-07-31T09:38:07;21.90;94.60
8420;DHT22;4247;48.550;8.822;2023-07-31T09:40:38;21.80;95.00
8420;DHT22;4247;48.550;8.822;2023-07-31T09:43:06;21.70;94.70
8420;DHT22;4247;48.550;8.822;2023-07-31T09:45:35;21.80;95.10
8420;DHT22;4247;48.550;8.822;2023-07-31T09:48:03;21.80;95.50
8420;DHT22;4247;48.550;8.822;2023-07-31T09:50:36;22.00;95.00
8420;DHT22;4247;48.550;8.822;2023-07-31T09:53:03;22.00;95.30
8420;DHT22;4247;48.550;8.822;2023-07-31T09:55:30;22.00;95.10
8420;DHT22;4247;48.550;8.822;2023-07-31T09:58:00;22.00;95.70
8420;DHT22;4247;48.550;8.822;2023-07-31T10:00:30;22.10;95.90
8420;DHT22;4247;48.550;8.822;2023-07-31T10:02:58;22.00;95.00
8420;DHT22;4247;48.550;8.822;2023-07-31T10:05:31;22.20;96.30
8420;DHT22;4247;48.550;8.822;2023-07-31T10:07:58;22.30;95.60
8420;DHT22;4247;48.550;8.822;2023-07-31T10:10:26;22.40;95.40
8420;DHT22;4247;48.550;8.822;2023-07-31T10:12:56;22.40;94.40
8420;DHT22;4247;48.550;8.822;2023-07-31T10:15:25;22.50;95.50
8420;DHT22;4247;48.550;8.822;2023-07-31T10:17:53;22.40;94.20
8420;DHT22;4247;48.550;8.822;2023-07-31T10:20:21;22.30;94.50
8420;DHT22;4247;48.550;8.822;2023-07-31T10:22:48;22.30;95.30
8420;DHT22;4247;48.550;8.822;2023-07-31T10:25:15;22.30;94.90
8420;DHT22;4247;48.550;8.822;2023-07-31T10:27:42;22.20;94.90
8420;DHT22;4247;48.550;8.822;2023-07-31T10:30:11;22.20;95.30
8420;DHT22;4247;48.550;8.822;2023-07-31T10:32:41;22.20;95.50
8420;DHT22;4247;48.550;8.822;2023-07-31T10:35:09;22.20;95.40
8420;DHT22;4247;48.550;8.822;2023-07-31T10:37:37;22.10;95.20
8420;DHT22;4247;48.550;8.822;2023-07-31T10:40:06;22.10;95.30
8420;DHT22;4247;48.550;8.822;2023-07-31T10:42:36;22.40;96.30
8420;DHT22;4247;48.550;8.822;2023-07-31T10:45:05;22.40;95.50
8420;DHT22;4247;48.550;8.822;2023-07-31T10:47:37;22.40;95.40
8420;DHT22;4247;48.550;8.822;2023-07-31T10:50:19;22.50;95.20
8420;DHT22;4247;48.550;8.822;2023-07-31T10:52:47;22.70;95.90
8420;DHT22;4247;48.550;8.822;2023-07-31T10:55:16;22.90;95.50
8420;DHT22;4247;48.550;8.822;2023-07-31T10:57:48;23.10;95.20
8420;DHT22;4247;48.550;8.822;2023-07-31T11:00:20;23.20;94.50
8420;DHT22;4247;48.550;8.822;2023-07-31T11:02:57;23.30;94.10
8420;DHT22;4247;48.550;8.822;2023-07-31T11:05:47;23.40;93.90
8420;DHT22;4247;48.550;8.822;2023-07-31T11:08:15;23.40;94.60
8420;DHT22;4247;48.550;8.822;2023-07-31T11:10:43;23.60;94.70
8420;DHT22;4247;48.550;8.822;2023-07-31T11:13:10;23.60;94.30
8420;DHT22;4247;48.550;8.822;2023-07-31T11:15:37;23.70;93.90
8420;DHT22;4247;48.550;8.822;2023-07-31T11:18:03;23.60;93.40
8420;DHT22;4247;48.550;8.822;2023-07-31T11:20:31;23.60;93.80
8420;DHT22;4247;48.550;8.822;2023-07-31T11:23:00;23.50;94.50
8420;DHT22;4247;48.550;8.822;2023-07-31T11:25:29;23.40;93.60
8420;DHT22;4247;48.550;8.822;2023-07-31T11:27:56;23.30;93.90
8420;DHT22;4247;48.550;8.822;2023-07-31T11:30:23;23.20;94.20
8420;DHT22;4247;48.550;8.822;2023-07-31T11:32:50;23.20;94.00
8420;DHT22;4247;48.550;8.822;2023-07-31T11:35:17;23.20;93.80
8420;DHT22;4247;48.550;8.822;2023-07-31T11:37:44;23.20;94.10
8420;DHT22;4247;48.550;8.822;2023-07-31T11:40:12;23.20;93.90
8420;DHT22;4247;48.550;8.822;2023-07-31T11:42:39;23.10;93.70
8420;DHT22;4247;48.550;8.822;2023-07-31T11:45:07;23.00;93.70
8420;DHT22;4247;48.550;8.822;2023-07-31T11:47:36;23.00;94.40
8420;DHT22;4247;48.550;8.822;2023-07-31T11:50:04;22.90;95.10
8420;DHT22;4247;48.550;8.822;2023-07-31T11:52:36;22.90;96.70
8420;DHT22;4247;48.550;8.822;2023-07-31T11:55:04;22.90;96.90
8420;DHT22;4247;48.550;8.822;2023-07-31T11:57:33;23.00;97.30
8420;DHT22;4247;48.550;8.822;2023-07-31T12:00:01;22.90;96.90
8420;DHT22;4247;48.550;8.822;2023-07-31T12:02:28;22.90;98.90
8420;DHT22;4247;48.550;8.822;2023-07-31T12:04:55;23.00;99.80
8420;DHT22;4247;48.550;8.822;2023-07-31T12:07:21;23.00;99.90
8420;DHT22;4247;48.550;8.822;2023-07-31T12:09:53;23.10;99.90
8420;DHT22;4247;48.550;8.822;2023-07-31T12:12:20;23.10;99.90
8420;DHT22;4247;48.550;8.822;2023-07-31T12:14:49;23.20;99.90
8420;DHT22;4247;48.550;8.822;2023-07-31T12:17:17;23.30;99.90
8420;DHT22;4247;48.550;8.822;2023-07-31T12:19:45;23.40;99.90
8420;DHT22;4247;48.550;8.822;2023-07-31T12:22:12;23.50;99.90
8420;DHT22;4247;48.550;8.822;2023-07-31T12:24:40;23.50;99.90
8420;DHT22;4247;48.550;8.822;2023-07-31T12:27:11;23.60;99.20
8420;DHT22;4247;48.550;8.822;2023-07-31T12:29:38;23.50;98.20
8420;DHT22;4247;48.550;8.822;2023-07-31T12:32:19;23.50;98.40
8420;DHT22;4247;48.550;8.822;2023-07-31T12:34:45;23.40;98.30
8420;DHT22;4247;48.550;8.822;2023-07-31T12:37:12;23.40;99.10
8420;DHT22;4247;48.550;8.822;2023-07-31T12:39:39;23.40;97.90
8420;DHT22;4247;48.550;8.822;2023-07-31T12:42:06;23.20;96.90
8420;DHT22;4247;48.550;8.822;2023-07-31T12:44:33;23.10;98.70
8420;DHT22;4247;48.550;8.822;2023-07-31T12:47:00;23.10;98.10
8420;DHT22;4247;48.550;8.822;2023-07-31T12:49:28;23.20;97.40
8420;DHT22;4247;48.550;8.822;2023-07-31T12:51:54;23.30;98.20
8420;DHT22;4247;48.550;8.822;2023-07-31T12:54:21;23.40;97.30
8420;DHT22;4247;48.550;8.822;2023-07-31T12:56:48;23.40;95.90
8420;DHT22;4247;48.550;8.822;2023-07-31T12:59:14;23.40;96.10
8420;DHT22;4247;48.550;8.822;2023-07-31T13:01:41;23.50;95.30
8420;DHT22;4247;48.550;8.822;2023-07-31T13:04:08;23.50;94.50
8420;DHT22;4247;48.550;8.822;2023-07-31T13:06:36;23.50;94.90
8420;DHT22;4247;48.550;8.822;2023-07-31T13:09:03;23.60;95.30
8420;DHT22;4247;48.550;8.822;2023-07-31T13:11:29;23.60;95.00
8420;DHT22;4247;48.550;8.822;2023-07-31T13:13:56;23.60;94.20
8420;DHT22;4247;48.550;8.822;2023-07-31T13:16:23;23.60;93.70
8420;DHT22;4247;48.550;8.822;2023-07-31T13:18:49;23.70;94.20
8420;DHT22;4247;48.550;8.822;2023-07-31T13:21:17;23.70;94.10
8420;DHT22;4247;48.550;8.822;2023-07-31T13:23:45;23.80;94.10
8420;DHT22;4247;48.550;8.822;2023-07-31T13:26:12;23.90;94.90
8420;DHT22;4247;48.550;8.822;2023-07-31T13:28:38;24.00;94.60
8420;DHT22;4247;48.550;8.822;2023-07-31T13:31:05;24.00;94.30
8420;DHT22;4247;48.550;8.822;2023-07-31T13:33:32;24.00;93.80
8420;DHT22;4247;48.550;8.822;2023-07-31T13:35:58;24.00;93.70
8420;DHT22;4247;48.550;8.822;2023-07-31T13:38:25;24.00;93.50
8420;DHT22;4247;48.550;8.822;2023-07-31T13:40:53;23.90;94.00
8420;DHT22;4247;48.550;8.822;2023-07-31T13:43:20;23.90;93.70
8420;DHT22;4247;48.550;8.822;2023-07-31T13:45:46;23.90;93.70
8420;DHT22;4247;48.550;8.822;2023-07-31T13:48:13;23.80;93.80
8420;DHT22;4247;48.550;8.822;2023-07-31T13:50:40;23.80;93.30
8420;DHT22;4247;48.550;8.822;2023-07-31T13:53:06;23.80;94.40
8420;DHT22;4247;48.550;8.822;2023-07-31T13:55:33;23.90;93.90
8420;DHT22;4247;48.550;8.822;2023-07-31T13:58:01;23.80;93.20
8420;DHT22;4247;48.550;8.822;2023-07-31T14:00:28;23.80;93.20
8420;DHT22;4247;48.550;8.822;2023-07-31T14:02:55;23.90;94.10
8420;DHT22;4247;48.550;8.822;2023-07-31T14:05:21;23.80;93.90
8420;DHT22;4247;48.550;8.822;2023-07-31T14:07:48;23.80;94.00
8420;DHT22;4247;48.550;8.822;2023-07-31T14:10:15;23.80;93.90
8420;DHT22;4247;48.550;8.822;2023-07-31T14:12:42;23.80;93.90
8420;DHT22;4247;48.550;8.822;2023-07-31T14:15:10;23.90;93.90
8420;DHT22;4247;48.550;8.822;2023-07-31T14:17:37;23.90;94.50
8420;DHT22;4247;48.550;8.822;2023-07-31T14:20:05;23.90;94.00
8420;DHT22;4247;48.550;8.822;2023-07-31T14:22:32;23.90;93.60
8420;DHT22;4247;48.550;8.822;2023-07-31T14:24:59;23.90;93.60
8420;DHT22;4247;48.550;8.822;2023-07-31T14:27:27;23.80;94.50
8420;DHT22;4247;48.550;8.822;2023-07-31T14:29:53;24.00;93.60
8420;DHT22;4247;48.550;8.822;2023-07-31T14:32:22;24.00;93.80
8420;DHT22;4247;48.550;8.822;2023-07-31T14:34:50;24.00;93.00
8420;DHT22;4247;48.550;8.822;2023-07-31T14:37:17;24.10;94.00
8420;DHT22;4247;48.550;8.822;2023-07-31T14:39:44;24.10;94.00
8420;DHT22;4247;48.550;8.822;2023-07-31T14:42:10;24.20;94.30
8420;DHT22;4247;48.550;8.822;2023-07-31T14:44:37;24.20;93.10
8420;DHT22;4247;48.550;8.822;2023-07-31T14:47:04;24.20;93.30
8420;DHT22;4247;48.550;8.822;2023-07-31T14:49:32;24.20;92.90
8420;DHT22;4247;48.550;8.822;2023-07-31T14:51:59;24.10;93.00
8420;DHT22;4247;48.550;8.822;2023-07-31T14:54:26;24.10;93.20
8420;DHT22;4247;48.550;8.822;2023-07-31T14:56:53;24.10;93.40
8420;DHT22;4247;48.550;8.822;2023-07-31T14:59:19;24.10;93.70
8420;DHT22;4247;48.550;8.822;2023-07-31T15:01:46;24.20;93.90
8420;DHT22;4247;48.550;8.822;2023-07-31T15:04:13;24.10;93.30
8420;DHT22;4247;48.550;8.822;2023-07-31T15:06:41;24.10;93.90
8420;DHT22;4247;48.550;8.822;2023-07-31T15:09:07;24.00;93.90
8420;DHT22;4247;48.550;8.822;2023-07-31T15:11:34;24.00;94.50
8420;DHT22;4247;48.550;8.822;2023-07-31T15:14:01;23.90;94.50
8420;DHT22;4247;48.550;8.822;2023-07-31T15:16:27;24.00;93.90
8420;DHT22;4247;48.550;8.822;2023-07-31T15:18:56;23.90;93.60
8420;DHT22;4247;48.550;8.822;2023-07-31T15:21:23;23.90;94.10
8420;DHT22;4247;48.550;8.822;2023-07-31T15:23:51;23.80;93.70
8420;DHT22;4247;48.550;8.822;2023-07-31T15:26:18;23.70;93.40
8420;DHT22;4247;48.550;8.822;2023-07-31T15:28:50;23.70;94.30
8420;DHT22;4247;48.550;8.822;2023-07-31T15:31:21;23.70;94.10
8420;DHT22;4247;48.550;8.822;2023-07-31T15:33:48;23.70;93.70
8420;DHT22;4247;48.550;8.822;2023-07-31T15:36:15;23.70;93.90
8420;DHT22;4247;48.550;8.822;2023-07-31T15:38:42;23.80;94.00
8420;DHT22;4247;48.550;8.822;2023-07-31T15:41:10;23.80;94.30
8420;DHT22;4247;48.550;8.822;2023-07-31T15:43:37;23.70;93.40
8420;DHT22;4247;48.550;8.822;2023-07-31T15:46:04;23.70;93.90
8420;DHT22;4247;48.550;8.822;2023-07-31T15:48:30;23.70;94.30
8420;DHT22;4247;48.550;8.822;2023-07-31T15:50:57;23.80;94.10
8420;DHT22;4247;48.550;8.822;2023-07-31T15:53:24;23.80;95.10
8420;DHT22;4247;48.550;8.822;2023-07-31T15:55:50;23.80;94.10
8420;DHT22;4247;48.550;8.822;2023-07-31T15:58:19;23.90;94.90
8420;DHT22;4247;48.550;8.822;2023-07-31T16:00:45;23.90;94.80
8420;DHT22;4247;48.550;8.822;2023-07-31T16:03:12;24.00;94.50
8420;DHT22;4247;48.550;8.822;2023-07-31T16:05:39;24.00;95.20